sensor_id;sensor_type;location;lat;lon;timestamp;P1;durP1;ratioP1;P2;durP2;ratioP2
2191;SDS011;1102;49.718;11.902;2023-01-19T00:00:14;8.63;;;5.93;;
2191;SDS011;1102;49.718;11.902;2023-01-19T00:02:43;8.30;;;5.40;;
2191;SDS011;1102;49.718;11.902;2023-01-19T00:05:13;8.80;;;5.87;;
2191;SDS011;1102;49.718;11.902;2023-01-19T00:07:40;8.20;;;4.83;;
2191;SDS011;1102;49.718;11.902;2023-01-19T00:10:07;7.50;;;5.33;;
2191;SDS011;1102;49.718;11.902;2023-01-19T00:12:35;11.40;;;6.47;;
2191;SDS011;1102;49.718;11.902;2023-01-19T00:15:02;10.20;;;6.07;;
2191;SDS011;1102;49.718;11.902;2023-01-19T00:17:29;6.53;;;5.87;;
2191;SDS011;1102;49.718;11.902;2023-01-19T00:19:56;11.97;;;7.57;;
2191;SDS011;1102;49.718;11.902;2023-01-19T00:22:22;6.03;;;5.40;;
2191;SDS011;1102;49.718;11.902;2023-01-19T00:24:49;6.50;;;5.67;;
2191;SDS011;1102;49.718;11.902;2023-01-19T00:27:16;7.23;;;5.80;;
2191;SDS011;1102;49.718;11.902;2023-01-19T00:29:43;5.73;;;4.73;;
2191;SDS011;1102;49.718;11.902;2023-01-19T00:32:09;8.23;;;6.53;;
2191;SDS011;1102;49.718;11.902;2023-01-19T00:34:36;7.00;;;6.17;;
2191;SDS011;1102;49.718;11.902;2023-01-19T00:37:05;8.50;;;6.17;;
2191;SDS011;1102;49.718;11.902;2023-01-19T00:39:32;7.83;;;5.40;;
2191;SDS011;1102;49.718;11.902;2023-01-19T00:41:59;12.43;;;7.80;;
2191;SDS011;1102;49.718;11.902;2023-01-19T00:44:44;6.80;;;6.03;;
2191;SDS011;1102;49.718;11.902;2023-01-19T00:47:11;7.50;;;6.27;;
2191;SDS011;1102;49.718;11.902;2023-01-19T00:49:37;9.00;;;5.80;;
2191;SDS011;1102;49.718;11.902;2023-01-19T00:52:04;7.40;;;6.37;;
2191;SDS011;1102;49.718;11.902;2023-01-19T00:54:31;7.33;;;6.73;;
2191;SDS011;1102;49.718;11.902;2023-01-19T00:56:58;10.10;;;6.30;;
2191;SDS011;1102;49.718;11.902;2023-01-19T00:59:25;8.80;;;6.90;;
2191;SDS011;1102;49.718;11.902;2023-01-19T01:01:51;8.87;;;7.37;;
2191;SDS011;1102;49.718;11.902;2023-01-19T01:04:18;7.77;;;6.03;;
2191;SDS011;1102;49.718;11.902;2023-01-19T01:06:45;10.57;;;6.43;;
2191;SDS011;1102;49.718;11.902;2023-01-19T01:09:12;11.20;;;7.10;;
2191;SDS011;1102;49.718;11.902;2023-01-19T01:11:39;8.97;;;7.27;;
2191;SDS011;1102;49.718;11.902;2023-01-19T01:14:07;7.50;;;6.03;;
2191;SDS011;1102;49.718;11.902;2023-01-19T01:16:35;9.57;;;7.17;;
2191;SDS011;1102;49.718;11.902;2023-01-19T01:19:02;9.27;;;7.40;;
2191;SDS011;1102;49.718;11.902;2023-01-19T01:21:28;9.20;;;6.60;;
2191;SDS011;1102;49.718;11.902;2023-01-19T01:23:55;6.17;;;5.37;;
2191;SDS011;1102;49.718;11.902;2023-01-19T01:26:22;8.90;;;6.33;;
2191;SDS011;1102;49.718;11.902;2023-01-19T01:28:48;7.63;;;6.30;;
2191;SDS011;1102;49.718;11.902;2023-01-19T01:31:15;8.50;;;7.10;;
2191;SDS011;1102;49.718;11.902;2023-01-19T01:33:42;7.73;;;6.73;;
2191;SDS011;1102;49.718;11.902;2023-01-19T01:36:09;9.73;;;6.77;;
2191;SDS011;1102;49.718;11.902;2023-01-19T01:38:38;9.57;;;6.90;;
2191;SDS011;1102;49.718;11.902;2023-01-19T01:41:06;7.03;;;6.27;;
2191;SDS011;1102;49.718;11.902;2023-01-19T01:46:33;12.50;;;7.37;;
2191;SDS011;1102;49.718;11.902;2023-01-19T01:51:37;10.03;;;7.40;;
2191;SDS011;1102;49.718;11.902;2023-01-19T01:56:38;8.43;;;7.03;;
2191;SDS011;1102;49.718;11.902;2023-01-19T01:59:13;9.10;;;7.13;;
2191;SDS011;1102;49.718;11.902;2023-01-19T02:01:59;12.70;;;8.83;;
2191;SDS011;1102;49.718;11.902;2023-01-19T02:04:49;14.93;;;6.30;;
2191;SDS011;1102;49.718;11.902;2023-01-19T02:07:40;6.63;;;5.90;;
2191;SDS011;1102;49.718;11.902;2023-01-19T02:10:30;9.87;;;6.83;;
2191;SDS011;1102;49.718;11.902;2023-01-19T02:13:17;8.13;;;6.70;;
2191;SDS011;1102;49.718;11.902;2023-01-19T02:18:19;10.30;;;6.93;;
2191;SDS011;1102;49.718;11.902;2023-01-19T02:20:49;8.50;;;7.13;;
2191;SDS011;1102;49.718;11.902;2023-01-19T02:23:56;10.10;;;6.87;;
2191;SDS011;1102;49.718;11.902;2023-01-19T02:28:52;9.83;;;7.40;;
2191;SDS011;1102;49.718;11.902;2023-01-19T02:31:23;11.50;;;8.47;;
2191;SDS011;1102;49.718;11.902;2023-01-19T02:33:51;10.87;;;8.13;;
2191;SDS011;1102;49.718;11.902;2023-01-19T02:36:20;10.63;;;7.80;;
2191;SDS011;1102;49.718;11.902;2023-01-19T02:38:52;10.17;;;8.40;;
2191;SDS011;1102;49.718;11.902;2023-01-19T02:41:23;11.80;;;8.40;;
2191;SDS011;1102;49.718;11.902;2023-01-19T02:43:53;10.63;;;7.50;;
2191;SDS011;1102;49.718;11.902;2023-01-19T02:46:22;11.77;;;7.77;;
2191;SDS011;1102;49.718;11.902;2023-01-19T02:48:50;11.43;;;9.63;;
2191;SDS011;1102;49.718;11.902;2023-01-19T02:51:17;11.53;;;7.93;;
2191;SDS011;1102;49.718;11.902;2023-01-19T03:01:44;7.23;;;6.53;;
2191;SDS011;1102;49.718;11.902;2023-01-19T03:04:34;10.83;;;7.13;;
2191;SDS011;1102;49.718;11.902;2023-01-19T03:07:11;11.50;;;7.43;;
2191;SDS011;1102;49.718;11.902;2023-01-19T03:09:48;9.90;;;7.87;;
2191;SDS011;1102;49.718;11.902;2023-01-19T03:12:27;7.50;;;6.70;;
2191;SDS011;1102;49.718;11.902;2023-01-19T03:15:18;8.60;;;7.10;;
2191;SDS011;1102;49.718;11.902;2023-01-19T03:17:48;13.23;;;7.97;;
2191;SDS011;1102;49.718;11.902;2023-01-19T03:20:18;13.43;;;9.03;;
2191;SDS011;1102;49.718;11.902;2023-01-19T03:22:50;15.27;;;9.80;;
2191;SDS011;1102;49.718;11.902;2023-01-19T03:25:21;14.30;;;9.80;;
2191;SDS011;1102;49.718;11.902;2023-01-19T03:27:50;12.47;;;7.23;;
2191;SDS011;1102;49.718;11.902;2023-01-19T03:30:21;10.40;;;8.70;;
2191;SDS011;1102;49.718;11.902;2023-01-19T03:32:53;9.87;;;7.70;;
2191;SDS011;1102;49.718;11.902;2023-01-19T03:35:25;10.43;;;7.53;;
2191;SDS011;1102;49.718;11.902;2023-01-19T03:37:56;9.03;;;7.47;;
2191;SDS011;1102;49.718;11.902;2023-01-19T03:40:26;8.60;;;7.60;;
2191;SDS011;1102;49.718;11.902;2023-01-19T03:42:55;10.17;;;8.80;;
2191;SDS011;1102;49.718;11.902;2023-01-19T03:45:23;8.93;;;6.80;;
2191;SDS011;1102;49.718;11.902;2023-01-19T03:47:50;10.20;;;8.20;;
2191;SDS011;1102;49.718;11.902;2023-01-19T03:50:21;7.60;;;6.60;;
2191;SDS011;1102;49.718;11.902;2023-01-19T03:52:59;12.80;;;7.70;;
2191;SDS011;1102;49.718;11.902;2023-01-19T03:55:28;9.93;;;6.80;;
2191;SDS011;1102;49.718;11.902;2023-01-19T03:57:55;7.93;;;6.77;;
2191;SDS011;1102;49.718;11.902;2023-01-19T04:00:21;12.53;;;7.27;;
2191;SDS011;1102;49.718;11.902;2023-01-19T04:02:48;6.87;;;5.80;;
2191;SDS011;1102;49.718;11.902;2023-01-19T04:05:15;9.83;;;6.77;;
2191;SDS011;1102;49.718;11.902;2023-01-19T04:07:42;12.47;;;8.10;;
2191;SDS011;1102;49.718;11.902;2023-01-19T04:10:08;9.00;;;7.43;;
2191;SDS011;1102;49.718;11.902;2023-01-19T04:12:38;6.93;;;6.23;;
2191;SDS011;1102;49.718;11.902;2023-01-19T04:15:08;9.53;;;5.63;;
2191;SDS011;1102;49.718;11.902;2023-01-19T04:17:34;8.80;;;6.23;;
2191;SDS011;1102;49.718;11.902;2023-01-19T04:20:01;9.70;;;7.33;;
2191;SDS011;1102;49.718;11.902;2023-01-19T04:22:28;7.37;;;5.20;;
2191;SDS011;1102;49.718;11.902;2023-01-19T04:24:55;7.87;;;7.00;;
2191;SDS011;1102;49.718;11.902;2023-01-19T04:27:22;9.50;;;7.50;;
2191;SDS011;1102;49.718;11.902;2023-01-19T04:29:48;7.80;;;6.70;;
2191;SDS011;1102;49.718;11.902;2023-01-19T04:32:15;8.90;;;7.23;;
2191;SDS011;1102;49.718;11.902;2023-01-19T04:34:42;9.53;;;7.43;;
2191;SDS011;1102;49.718;11.902;2023-01-19T04:37:08;9.27;;;7.67;;
2191;SDS011;1102;49.718;11.902;2023-01-19T04:39:35;11.40;;;8.87;;
2191;SDS011;1102;49.718;11.902;2023-01-19T04:42:02;6.40;;;5.80;;
2191;SDS011;1102;49.718;11.902;2023-01-19T04:44:28;17.10;;;6.83;;
2191;SDS011;1102;49.718;11.902;2023-01-19T04:46:55;10.57;;;7.50;;
2191;SDS011;1102;49.718;11.902;2023-01-19T04:49:22;7.30;;;6.07;;
2191;SDS011;1102;49.718;11.902;2023-01-19T04:51:51;8.00;;;6.20;;
2191;SDS011;1102;49.718;11.902;2023-01-19T04:54:19;9.20;;;6.53;;
2191;SDS011;1102;49.718;11.902;2023-01-19T04:56:46;8.63;;;6.47;;
2191;SDS011;1102;49.718;11.902;2023-01-19T04:59:12;10.50;;;7.53;;
2191;SDS011;1102;49.718;11.902;2023-01-19T05:01:39;10.27;;;7.33;;
2191;SDS011;1102;49.718;11.902;2023-01-19T05:04:06;12.70;;;8.27;;
2191;SDS011;1102;49.718;11.902;2023-01-19T05:06:33;14.30;;;8.70;;
2191;SDS011;1102;49.718;11.902;2023-01-19T05:09:00;10.93;;;8.37;;
2191;SDS011;1102;49.718;11.902;2023-01-19T05:11:27;14.60;;;10.67;;
2191;SDS011;1102;49.718;11.902;2023-01-19T05:13:53;13.80;;;9.83;;
2191;SDS011;1102;49.718;11.902;2023-01-19T05:16:20;10.87;;;8.47;;
2191;SDS011;1102;49.718;11.902;2023-01-19T05:18:47;21.07;;;11.13;;
2191;SDS011;1102;49.718;11.902;2023-01-19T05:21:13;13.73;;;11.27;;
2191;SDS011;1102;49.718;11.902;2023-01-19T05:23:40;8.80;;;7.70;;
2191;SDS011;1102;49.718;11.902;2023-01-19T05:26:07;11.40;;;8.53;;
2191;SDS011;1102;49.718;11.902;2023-01-19T05:28:35;10.53;;;9.40;;
2191;SDS011;1102;49.718;11.902;2023-01-19T05:31:05;12.13;;;8.00;;
2191;SDS011;1102;49.718;11.902;2023-01-19T05:33:31;15.43;;;9.07;;
2191;SDS011;1102;49.718;11.902;2023-01-19T05:35:58;11.10;;;8.77;;
2191;SDS011;1102;49.718;11.902;2023-01-19T05:38:25;14.30;;;10.90;;
2191;SDS011;1102;49.718;11.902;2023-01-19T05:41:00;11.07;;;8.80;;
2191;SDS011;1102;49.718;11.902;2023-01-19T05:43:30;9.43;;;7.53;;
2191;SDS011;1102;49.718;11.902;2023-01-19T05:45:57;11.70;;;8.47;;
2191;SDS011;1102;49.718;11.902;2023-01-19T05:48:24;11.47;;;8.50;;
2191;SDS011;1102;49.718;11.902;2023-01-19T05:50:55;12.60;;;11.00;;
2191;SDS011;1102;49.718;11.902;2023-01-19T05:53:23;12.33;;;10.30;;
2191;SDS011;1102;49.718;11.902;2023-01-19T05:55:50;25.00;;;12.70;;
2191;SDS011;1102;49.718;11.902;2023-01-19T05:58:16;20.90;;;14.70;;
2191;SDS011;1102;49.718;11.902;2023-01-19T06:00:43;18.00;;;14.10;;
2191;SDS011;1102;49.718;11.902;2023-01-19T06:03:10;22.47;;;15.53;;
2191;SDS011;1102;49.718;11.902;2023-01-19T06:05:37;17.70;;;14.93;;
2191;SDS011;1102;49.718;11.902;2023-01-19T06:08:04;20.40;;;12.93;;
2191;SDS011;1102;49.718;11.902;2023-01-19T06:10:31;18.17;;;11.80;;
2191;SDS011;1102;49.718;11.902;2023-01-19T06:12:58;17.93;;;12.87;;
2191;SDS011;1102;49.718;11.902;2023-01-19T06:15:25;16.23;;;12.33;;
2191;SDS011;1102;49.718;11.902;2023-01-19T06:17:52;20.80;;;12.70;;
2191;SDS011;1102;49.718;11.902;2023-01-19T06:20:18;15.73;;;10.77;;
2191;SDS011;1102;49.718;11.902;2023-01-19T06:22:45;16.77;;;12.27;;
2191;SDS011;1102;49.718;11.902;2023-01-19T06:25:12;13.50;;;10.80;;
2191;SDS011;1102;49.718;11.902;2023-01-19T06:27:42;13.33;;;10.40;;
2191;SDS011;1102;49.718;11.902;2023-01-19T06:30:10;20.37;;;12.57;;
2191;SDS011;1102;49.718;11.902;2023-01-19T06:32:37;18.80;;;13.10;;
2191;SDS011;1102;49.718;11.902;2023-01-19T06:35:04;18.70;;;15.10;;
2191;SDS011;1102;49.718;11.902;2023-01-19T06:37:33;20.07;;;13.47;;
2191;SDS011;1102;49.718;11.902;2023-01-19T06:39:59;17.43;;;11.47;;
2191;SDS011;1102;49.718;11.902;2023-01-19T06:42:26;14.90;;;12.50;;
2191;SDS011;1102;49.718;11.902;2023-01-19T06:44:53;14.23;;;11.93;;
2191;SDS011;1102;49.718;11.902;2023-01-19T06:47:19;15.57;;;12.10;;
2191;SDS011;1102;49.718;11.902;2023-01-19T06:49:46;20.03;;;14.73;;
2191;SDS011;1102;49.718;11.902;2023-01-19T06:52:14;21.40;;;12.57;;
2191;SDS011;1102;49.718;11.902;2023-01-19T06:54:43;16.83;;;13.57;;
2191;SDS011;1102;49.718;11.902;2023-01-19T06:57:10;20.63;;;15.00;;
2191;SDS011;1102;49.718;11.902;2023-01-19T06:59:37;17.10;;;13.00;;
2191;SDS011;1102;49.718;11.902;2023-01-19T07:02:04;15.83;;;13.37;;
2191;SDS011;1102;49.718;11.902;2023-01-19T07:04:51;20.47;;;13.67;;
2191;SDS011;1102;49.718;11.902;2023-01-19T07:07:18;17.47;;;14.10;;
2191;SDS011;1102;49.718;11.902;2023-01-19T07:09:44;26.23;;;17.47;;
2191;SDS011;1102;49.718;11.902;2023-01-19T07:12:13;24.60;;;16.63;;
2191;SDS011;1102;49.718;11.902;2023-01-19T07:14:40;37.57;;;22.17;;
2191;SDS011;1102;49.718;11.902;2023-01-19T07:17:07;44.67;;;26.47;;
2191;SDS011;1102;49.718;11.902;2023-01-19T07:19:34;43.43;;;24.77;;
2191;SDS011;1102;49.718;11.902;2023-01-19T07:22:00;28.37;;;18.50;;
2191;SDS011;1102;49.718;11.902;2023-01-19T07:24:28;22.50;;;16.60;;
2191;SDS011;1102;49.718;11.902;2023-01-19T07:27:03;21.10;;;17.13;;
2191;SDS011;1102;49.718;11.902;2023-01-19T07:29:30;21.37;;;16.73;;
2191;SDS011;1102;49.718;11.902;2023-01-19T07:31:57;21.83;;;13.77;;
2191;SDS011;1102;49.718;11.902;2023-01-19T07:34:23;20.80;;;14.47;;
2191;SDS011;1102;49.718;11.902;2023-01-19T07:36:50;21.07;;;14.40;;
2191;SDS011;1102;49.718;11.902;2023-01-19T07:39:17;18.33;;;13.30;;
2191;SDS011;1102;49.718;11.902;2023-01-19T07:41:43;20.50;;;14.30;;
2191;SDS011;1102;49.718;11.902;2023-01-19T07:44:11;25.03;;;14.30;;
2191;SDS011;1102;49.718;11.902;2023-01-19T07:46:38;19.53;;;13.53;;
2191;SDS011;1102;49.718;11.902;2023-01-19T07:49:05;21.97;;;15.30;;
2191;SDS011;1102;49.718;11.902;2023-01-19T07:51:31;20.67;;;15.70;;
2191;SDS011;1102;49.718;11.902;2023-01-19T07:53:58;23.47;;;14.63;;
2191;SDS011;1102;49.718;11.902;2023-01-19T07:56:25;16.50;;;14.37;;
2191;SDS011;1102;49.718;11.902;2023-01-19T07:58:53;21.23;;;13.37;;
2191;SDS011;1102;49.718;11.902;2023-01-19T08:01:20;25.77;;;14.27;;
2191;SDS011;1102;49.718;11.902;2023-01-19T08:03:47;23.07;;;15.00;;
2191;SDS011;1102;49.718;11.902;2023-01-19T08:06:21;22.17;;;15.23;;
2191;SDS011;1102;49.718;11.902;2023-01-19T08:08:49;16.80;;;12.90;;
2191;SDS011;1102;49.718;11.902;2023-01-19T08:11:16;18.87;;;14.07;;
2191;SDS011;1102;49.718;11.902;2023-01-19T08:13:43;25.80;;;16.63;;
2191;SDS011;1102;49.718;11.902;2023-01-19T08:16:09;28.60;;;17.10;;
2191;SDS011;1102;49.718;11.902;2023-01-19T08:18:36;20.70;;;14.83;;
2191;SDS011;1102;49.718;11.902;2023-01-19T08:21:03;20.13;;;13.07;;
2191;SDS011;1102;49.718;11.902;2023-01-19T08:23:30;17.27;;;15.30;;
2191;SDS011;1102;49.718;11.902;2023-01-19T08:25:56;18.10;;;14.40;;
2191;SDS011;1102;49.718;11.902;2023-01-19T08:28:23;18.70;;;14.20;;
2191;SDS011;1102;49.718;11.902;2023-01-19T08:30:51;20.57;;;14.10;;
2191;SDS011;1102;49.718;11.902;2023-01-19T08:33:21;27.40;;;14.10;;
2191;SDS011;1102;49.718;11.902;2023-01-19T08:35:51;18.50;;;13.90;;
2191;SDS011;1102;49.718;11.902;2023-01-19T08:38:18;21.93;;;14.73;;
2191;SDS011;1102;49.718;11.902;2023-01-19T08:40:45;24.10;;;14.40;;
2191;SDS011;1102;49.718;11.902;2023-01-19T08:43:13;38.33;;;21.40;;
2191;SDS011;1102;49.718;11.902;2023-01-19T08:45:43;37.67;;;21.10;;
2191;SDS011;1102;49.718;11.902;2023-01-19T08:48:15;32.33;;;20.17;;
2191;SDS011;1102;49.718;11.902;2023-01-19T08:50:44;68.67;;;33.00;;
2191;SDS011;1102;49.718;11.902;2023-01-19T08:53:12;54.93;;;27.20;;
2191;SDS011;1102;49.718;11.902;2023-01-19T08:55:39;51.37;;;24.30;;
2191;SDS011;1102;49.718;11.902;2023-01-19T08:58:06;44.90;;;26.30;;
2191;SDS011;1102;49.718;11.902;2023-01-19T09:00:35;31.73;;;18.20;;
2191;SDS011;1102;49.718;11.902;2023-01-19T09:03:06;24.20;;;16.60;;
2191;SDS011;1102;49.718;11.902;2023-01-19T09:05:35;20.27;;;11.93;;
2191;SDS011;1102;49.718;11.902;2023-01-19T09:08:05;23.53;;;15.27;;
2191;SDS011;1102;49.718;11.902;2023-01-19T09:10:36;23.03;;;13.53;;
2191;SDS011;1102;49.718;11.902;2023-01-19T09:13:04;24.53;;;14.77;;
2191;SDS011;1102;49.718;11.902;2023-01-19T09:15:36;14.57;;;12.60;;
2191;SDS011;1102;49.718;11.902;2023-01-19T09:18:04;32.97;;;19.70;;
2191;SDS011;1102;49.718;11.902;2023-01-19T09:20:33;16.30;;;14.00;;
2191;SDS011;1102;49.718;11.902;2023-01-19T09:23:01;44.10;;;26.27;;
2191;SDS011;1102;49.718;11.902;2023-01-19T09:25:28;35.90;;;20.40;;
2191;SDS011;1102;49.718;11.902;2023-01-19T09:27:55;25.07;;;17.13;;
2191;SDS011;1102;49.718;11.902;2023-01-19T09:30:21;17.63;;;12.40;;
2191;SDS011;1102;49.718;11.902;2023-01-19T09:32:48;25.03;;;16.10;;
2191;SDS011;1102;49.718;11.902;2023-01-19T09:35:15;17.20;;;12.33;;
2191;SDS011;1102;49.718;11.902;2023-01-19T09:37:44;12.93;;;10.40;;
2191;SDS011;1102;49.718;11.902;2023-01-19T09:40:13;18.87;;;13.43;;
2191;SDS011;1102;49.718;11.902;2023-01-19T09:42:42;14.33;;;12.27;;
2191;SDS011;1102;49.718;11.902;2023-01-19T09:48:29;27.43;;;15.30;;
2191;SDS011;1102;49.718;11.902;2023-01-19T09:51:18;17.53;;;13.73;;
2191;SDS011;1102;49.718;11.902;2023-01-19T09:56:19;19.30;;;16.27;;
2191;SDS011;1102;49.718;11.902;2023-01-19T09:58:47;23.83;;;14.47;;
2191;SDS011;1102;49.718;11.902;2023-01-19T10:01:22;32.90;;;23.40;;
2191;SDS011;1102;49.718;11.902;2023-01-19T10:04:10;24.43;;;16.00;;
2191;SDS011;1102;49.718;11.902;2023-01-19T10:06:51;35.27;;;29.63;;
2191;SDS011;1102;49.718;11.902;2023-01-19T10:09:30;17.53;;;9.63;;
2191;SDS011;1102;49.718;11.902;2023-01-19T10:14:59;11.60;;;8.60;;
2191;SDS011;1102;49.718;11.902;2023-01-19T10:20:41;13.97;;;8.90;;
2191;SDS011;1102;49.718;11.902;2023-01-19T10:23:33;11.77;;;8.93;;
2191;SDS011;1102;49.718;11.902;2023-01-19T10:26:02;12.37;;;7.90;;
2191;SDS011;1102;49.718;11.902;2023-01-19T10:28:38;13.03;;;7.30;;
2191;SDS011;1102;49.718;11.902;2023-01-19T10:31:07;13.20;;;10.00;;
2191;SDS011;1102;49.718;11.902;2023-01-19T10:33:35;9.57;;;8.57;;
2191;SDS011;1102;49.718;11.902;2023-01-19T10:36:26;10.63;;;7.73;;
2191;SDS011;1102;49.718;11.902;2023-01-19T10:38:55;11.47;;;7.10;;
2191;SDS011;1102;49.718;11.902;2023-01-19T10:41:33;14.80;;;9.93;;
2191;SDS011;1102;49.718;11.902;2023-01-19T10:44:03;12.20;;;9.27;;
2191;SDS011;1102;49.718;11.902;2023-01-19T10:46:36;16.10;;;9.07;;
2191;SDS011;1102;49.718;11.902;2023-01-19T10:51:55;8.67;;;6.80;;
2191;SDS011;1102;49.718;11.902;2023-01-19T10:54:25;10.97;;;8.87;;
2191;SDS011;1102;49.718;11.902;2023-01-19T10:57:00;9.17;;;7.47;;
2191;SDS011;1102;49.718;11.902;2023-01-19T11:02:15;12.97;;;9.40;;
2191;SDS011;1102;49.718;11.902;2023-01-19T11:05:19;14.33;;;8.70;;
2191;SDS011;1102;49.718;11.902;2023-01-19T11:07:57;10.03;;;9.00;;
2191;SDS011;1102;49.718;11.902;2023-01-19T11:10:26;10.00;;;8.33;;
2191;SDS011;1102;49.718;11.902;2023-01-19T11:12:59;8.97;;;7.60;;
2191;SDS011;1102;49.718;11.902;2023-01-19T11:15:41;10.50;;;8.23;;
2191;SDS011;1102;49.718;11.902;2023-01-19T11:18:31;12.27;;;9.13;;
2191;SDS011;1102;49.718;11.902;2023-01-19T11:21:05;9.40;;;7.97;;
2191;SDS011;1102;49.718;11.902;2023-01-19T11:23:34;8.77;;;7.87;;
2191;SDS011;1102;49.718;11.902;2023-01-19T11:26:31;10.20;;;7.93;;
2191;SDS011;1102;49.718;11.902;2023-01-19T11:28:58;11.40;;;7.40;;
2191;SDS011;1102;49.718;11.902;2023-01-19T11:34:03;16.73;;;12.20;;
2191;SDS011;1102;49.718;11.902;2023-01-19T11:36:32;9.40;;;8.17;;
2191;SDS011;1102;49.718;11.902;2023-01-19T11:39:20;9.00;;;6.50;;
2191;SDS011;1102;49.718;11.902;2023-01-19T11:41:54;10.10;;;7.47;;
2191;SDS011;1102;49.718;11.902;2023-01-19T11:44:33;11.60;;;7.90;;
2191;SDS011;1102;49.718;11.902;2023-01-19T11:47:02;13.07;;;7.47;;
2191;SDS011;1102;49.718;11.902;2023-01-19T11:49:35;9.80;;;7.43;;
2191;SDS011;1102;49.718;11.902;2023-01-19T11:52:26;10.80;;;8.10;;
2191;SDS011;1102;49.718;11.902;2023-01-19T11:57:31;13.37;;;9.47;;
2191;SDS011;1102;49.718;11.902;2023-01-19T11:59:59;12.20;;;9.37;;
2191;SDS011;1102;49.718;11.902;2023-01-19T12:02:38;23.30;;;16.17;;
2191;SDS011;1102;49.718;11.902;2023-01-19T12:05:11;10.63;;;8.20;;
2191;SDS011;1102;49.718;11.902;2023-01-19T12:07:42;13.10;;;9.83;;
2191;SDS011;1102;49.718;11.902;2023-01-19T12:10:24;9.20;;;6.60;;
2191;SDS011;1102;49.718;11.902;2023-01-19T12:12:54;9.07;;;8.23;;
2191;SDS011;1102;49.718;11.902;2023-01-19T12:15:35;8.97;;;7.90;;
2191;SDS011;1102;49.718;11.902;2023-01-19T12:18:06;8.20;;;7.37;;
2191;SDS011;1102;49.718;11.902;2023-01-19T12:20:42;9.97;;;7.00;;
2191;SDS011;1102;49.718;11.902;2023-01-19T12:23:16;25.83;;;9.50;;
2191;SDS011;1102;49.718;11.902;2023-01-19T12:28:45;12.50;;;6.27;;
2191;SDS011;1102;49.718;11.902;2023-01-19T12:31:17;11.17;;;8.33;;
2191;SDS011;1102;49.718;11.902;2023-01-19T12:33:46;11.60;;;10.33;;
2191;SDS011;1102;49.718;11.902;2023-01-19T12:38:52;9.40;;;8.33;;
2191;SDS011;1102;49.718;11.902;2023-01-19T12:41:28;10.67;;;9.57;;
2191;SDS011;1102;49.718;11.902;2023-01-19T12:46:36;16.97;;;8.53;;
2191;SDS011;1102;49.718;11.902;2023-01-19T12:55:13;11.20;;;7.43;;
2191;SDS011;1102;49.718;11.902;2023-01-19T12:58:00;9.70;;;7.40;;
2191;SDS011;1102;49.718;11.902;2023-01-19T13:00:35;7.63;;;6.37;;
2191;SDS011;1102;49.718;11.902;2023-01-19T13:05:49;7.47;;;6.13;;
2191;SDS011;1102;49.718;11.902;2023-01-19T13:08:24;11.50;;;7.63;;
2191;SDS011;1102;49.718;11.902;2023-01-19T13:13:29;7.70;;;6.90;;
2191;SDS011;1102;49.718;11.902;2023-01-19T13:16:45;10.87;;;8.33;;
2191;SDS011;1102;49.718;11.902;2023-01-19T13:18:56;8.83;;;7.00;;
2191;SDS011;1102;49.718;11.902;2023-01-19T13:21:31;9.60;;;6.83;;
2191;SDS011;1102;49.718;11.902;2023-01-19T13:23:59;8.43;;;7.57;;
2191;SDS011;1102;49.718;11.902;2023-01-19T13:29:29;10.67;;;7.97;;
2191;SDS011;1102;49.718;11.902;2023-01-19T13:31:57;18.17;;;11.57;;
2191;SDS011;1102;49.718;11.902;2023-01-19T13:34:29;10.93;;;6.83;;
2191;SDS011;1102;49.718;11.902;2023-01-19T13:37:04;10.40;;;9.33;;
2191;SDS011;1102;49.718;11.902;2023-01-19T13:42:11;30.03;;;24.63;;
2191;SDS011;1102;49.718;11.902;2023-01-19T13:44:42;159.57;;;93.67;;
2191;SDS011;1102;49.718;11.902;2023-01-19T13:47:21;23.43;;;15.63;;
2191;SDS011;1102;49.718;11.902;2023-01-19T13:49:54;56.70;;;31.40;;
2191;SDS011;1102;49.718;11.902;2023-01-19T13:52:23;196.07;;;97.90;;
2191;SDS011;1102;49.718;11.902;2023-01-19T13:54:58;406.67;;;218.87;;
2191;SDS011;1102;49.718;11.902;2023-01-19T13:57:33;274.27;;;144.33;;
2191;SDS011;1102;49.718;11.902;2023-01-19T14:02:37;88.13;;;53.87;;
2191;SDS011;1102;49.718;11.902;2023-01-19T14:05:15;26.70;;;18.00;;
2191;SDS011;1102;49.718;11.902;2023-01-19T14:07:57;12.90;;;10.37;;
2191;SDS011;1102;49.718;11.902;2023-01-19T14:13:24;15.07;;;11.30;;
2191;SDS011;1102;49.718;11.902;2023-01-19T14:15:56;9.80;;;8.87;;
2191;SDS011;1102;49.718;11.902;2023-01-19T14:18:30;10.40;;;9.30;;
2191;SDS011;1102;49.718;11.902;2023-01-19T14:21:08;15.70;;;12.53;;
2191;SDS011;1102;49.718;11.902;2023-01-19T14:23:44;16.33;;;14.43;;
2191;SDS011;1102;49.718;11.902;2023-01-19T14:34:31;7.10;;;6.40;;
2191;SDS011;1102;49.718;11.902;2023-01-19T14:37:01;41.97;;;25.67;;
2191;SDS011;1102;49.718;11.902;2023-01-19T14:39:33;28.80;;;15.93;;
2191;SDS011;1102;49.718;11.902;2023-01-19T14:42:00;137.53;;;61.13;;
2191;SDS011;1102;49.718;11.902;2023-01-19T14:44:36;47.93;;;26.47;;
2191;SDS011;1102;49.718;11.902;2023-01-19T14:47:04;11.00;;;7.50;;
2191;SDS011;1102;49.718;11.902;2023-01-19T14:49:45;12.60;;;8.80;;
2191;SDS011;1102;49.718;11.902;2023-01-19T14:52:32;9.90;;;7.17;;
2191;SDS011;1102;49.718;11.902;2023-01-19T14:55:02;10.47;;;7.87;;
2191;SDS011;1102;49.718;11.902;2023-01-19T14:57:33;23.30;;;11.27;;
2191;SDS011;1102;49.718;11.902;2023-01-19T15:00:05;23.80;;;13.23;;
2191;SDS011;1102;49.718;11.902;2023-01-19T15:02:37;18.80;;;11.53;;
2191;SDS011;1102;49.718;11.902;2023-01-19T15:05:04;76.47;;;39.97;;
2191;SDS011;1102;49.718;11.902;2023-01-19T15:07:31;27.20;;;19.23;;
2191;SDS011;1102;49.718;11.902;2023-01-19T15:09:58;33.80;;;23.80;;
2191;SDS011;1102;49.718;11.902;2023-01-19T15:12:25;43.47;;;32.33;;
2191;SDS011;1102;49.718;11.902;2023-01-19T15:14:53;83.17;;;48.20;;
2191;SDS011;1102;49.718;11.902;2023-01-19T15:17:20;42.80;;;27.03;;
2191;SDS011;1102;49.718;11.902;2023-01-19T15:19:51;34.67;;;22.00;;
2191;SDS011;1102;49.718;11.902;2023-01-19T15:22:19;18.47;;;13.13;;
2191;SDS011;1102;49.718;11.902;2023-01-19T15:24:47;20.07;;;13.93;;
2191;SDS011;1102;49.718;11.902;2023-01-19T15:27:15;40.77;;;25.40;;
2191;SDS011;1102;49.718;11.902;2023-01-19T15:29:42;15.23;;;13.63;;
2191;SDS011;1102;49.718;11.902;2023-01-19T15:32:12;10.40;;;8.97;;
2191;SDS011;1102;49.718;11.902;2023-01-19T15:34:40;15.13;;;11.10;;
2191;SDS011;1102;49.718;11.902;2023-01-19T15:37:07;16.87;;;13.30;;
2191;SDS011;1102;49.718;11.902;2023-01-19T15:39:34;13.30;;;11.60;;
2191;SDS011;1102;49.718;11.902;2023-01-19T15:42:00;12.47;;;10.80;;
2191;SDS011;1102;49.718;11.902;2023-01-19T15:44:27;12.87;;;8.40;;
2191;SDS011;1102;49.718;11.902;2023-01-19T15:46:55;11.13;;;8.67;;
2191;SDS011;1102;49.718;11.902;2023-01-19T15:49:22;11.80;;;7.90;;
2191;SDS011;1102;49.718;11.902;2023-01-19T15:51:49;9.60;;;8.70;;
2191;SDS011;1102;49.718;11.902;2023-01-19T15:54:16;9.53;;;8.53;;
2191;SDS011;1102;49.718;11.902;2023-01-19T15:56:44;9.33;;;7.20;;
2191;SDS011;1102;49.718;11.902;2023-01-19T15:59:10;9.77;;;8.13;;
2191;SDS011;1102;49.718;11.902;2023-01-19T16:01:37;14.87;;;8.70;;
2191;SDS011;1102;49.718;11.902;2023-01-19T16:04:05;11.83;;;8.00;;
2191;SDS011;1102;49.718;11.902;2023-01-19T16:06:33;18.13;;;11.53;;
2191;SDS011;1102;49.718;11.902;2023-01-19T16:09:00;11.80;;;9.60;;
2191;SDS011;1102;49.718;11.902;2023-01-19T16:11:28;19.73;;;11.27;;
2191;SDS011;1102;49.718;11.902;2023-01-19T16:13:57;8.77;;;7.70;;
2191;SDS011;1102;49.718;11.902;2023-01-19T16:16:24;9.37;;;8.40;;
2191;SDS011;1102;49.718;11.902;2023-01-19T16:18:53;13.47;;;8.57;;
2191;SDS011;1102;49.718;11.902;2023-01-19T16:21:20;10.73;;;9.07;;
2191;SDS011;1102;49.718;11.902;2023-01-19T16:23:47;13.33;;;9.00;;
2191;SDS011;1102;49.718;11.902;2023-01-19T16:26:24;14.87;;;10.20;;